sensor_id;sensor_type;location;lat;lon;timestamp;P1;durP1;ratioP1;P2;durP2;ratioP2
9496;SDS011;4786;51.270;4.456;2023-04-03T00:01:38;8.63;;;7.63;;
9496;SDS011;4786;51.270;4.456;2023-04-03T00:04:05;7.90;;;7.10;;
9496;SDS011;4786;51.270;4.456;2023-04-03T00:06:31;9.47;;;7.63;;
9496;SDS011;4786;51.270;4.456;2023-04-03T00:08:58;9.87;;;7.90;;
9496;SDS011;4786;51.270;4.456;2023-04-03T00:11:24;10.90;;;7.57;;
9496;SDS011;4786;51.270;4.456;2023-04-03T00:13:50;9.63;;;7.27;;
9496;SDS011;4786;51.270;4.456;2023-04-03T00:16:16;10.97;;;7.43;;
9496;SDS011;4786;51.270;4.456;2023-04-03T00:18:43;8.30;;;7.43;;
9496;SDS011;4786;51.270;4.456;2023-04-03T00:21:10;10.17;;;7.20;;
9496;SDS011;4786;51.270;4.456;2023-04-03T00:23:38;9.43;;;7.47;;
9496;SDS011;4786;51.270;4.456;2023-04-03T00:26:04;8.50;;;7.07;;
9496;SDS011;4786;51.270;4.456;2023-04-03T00:28:30;8.40;;;7.53;;
9496;SDS011;4786;51.270;4.456;2023-04-03T00:30:56;8.13;;;7.13;;
9496;SDS011;4786;51.270;4.456;2023-04-03T00:33:22;9.60;;;7.60;;
9496;SDS011;4786;51.270;4.456;2023-04-03T00:35:49;8.10;;;6.93;;
9496;SDS011;4786;51.270;4.456;2023-04-03T00:38:16;8.17;;;7.30;;
9496;SDS011;4786;51.270;4.456;2023-04-03T00:40:43;7.90;;;7.10;;
9496;SDS011;4786;51.270;4.456;2023-04-03T00:43:13;8.47;;;7.57;;
9496;SDS011;4786;51.270;4.456;2023-04-03T00:45:43;8.13;;;7.33;;
9496;SDS011;4786;51.270;4.456;2023-04-03T00:48:11;9.80;;;7.47;;
9496;SDS011;4786;51.270;4.456;2023-04-03T00:50:43;8.60;;;7.80;;
9496;SDS011;4786;51.270;4.456;2023-04-03T00:53:14;9.10;;;7.40;;
9496;SDS011;4786;51.270;4.456;2023-04-03T00:55:48;8.80;;;6.80;;
9496;SDS011;4786;51.270;4.456;2023-04-03T00:58:17;8.30;;;7.50;;
9496;SDS011;4786;51.270;4.456;2023-04-03T01:00:48;7.90;;;7.10;;
9496;SDS011;4786;51.270;4.456;2023-04-03T01:03:21;9.00;;;7.17;;
9496;SDS011;4786;51.270;4.456;2023-04-03T01:05:47;8.40;;;7.07;;
9496;SDS011;4786;51.270;4.456;2023-04-03T01:08:13;8.30;;;6.70;;
9496;SDS011;4786;51.270;4.456;2023-04-03T01:10:39;8.33;;;7.53;;
9496;SDS011;4786;51.270;4.456;2023-04-03T01:13:25;7.20;;;6.50;;
9496;SDS011;4786;51.270;4.456;2023-04-03T01:15:54;8.50;;;7.23;;
9496;SDS011;4786;51.270;4.456;2023-04-03T01:18:22;8.97;;;7.10;;
9496;SDS011;4786;51.270;4.456;2023-04-03T01:23:59;7.60;;;6.87;;
9496;SDS011;4786;51.270;4.456;2023-04-03T01:27:07;6.77;;;6.17;;
9496;SDS011;4786;51.270;4.456;2023-04-03T01:29:35;7.10;;;6.40;;
9496;SDS011;4786;51.270;4.456;2023-04-03T01:32:02;8.03;;;6.27;;
9496;SDS011;4786;51.270;4.456;2023-04-03T01:34:30;7.80;;;6.80;;
9496;SDS011;4786;51.270;4.456;2023-04-03T01:36:56;7.30;;;6.60;;
9496;SDS011;4786;51.270;4.456;2023-04-03T01:39:23;7.90;;;6.03;;
9496;SDS011;4786;51.270;4.456;2023-04-03T01:41:49;7.60;;;6.60;;
9496;SDS011;4786;51.270;4.456;2023-04-03T01:44:16;6.30;;;5.70;;
9496;SDS011;4786;51.270;4.456;2023-04-03T01:46:42;7.13;;;6.40;;
9496;SDS011;4786;51.270;4.456;2023-04-03T01:49:09;7.50;;;6.50;;
9496;SDS011;4786;51.270;4.456;2023-04-03T01:51:35;7.37;;;6.10;;
9496;SDS011;4786;51.270;4.456;2023-04-03T01:54:01;7.83;;;6.33;;
9496;SDS011;4786;51.270;4.456;2023-04-03T01:56:27;7.30;;;6.40;;
9496;SDS011;4786;51.270;4.456;2023-04-03T01:58:53;6.70;;;6.10;;
9496;SDS011;4786;51.270;4.456;2023-04-03T02:01:19;7.80;;;7.00;;
9496;SDS011;4786;51.270;4.456;2023-04-03T02:03:45;6.97;;;6.27;;
9496;SDS011;4786;51.270;4.456;2023-04-03T02:06:11;7.20;;;6.60;;
9496;SDS011;4786;51.270;4.456;2023-04-03T02:08:37;7.53;;;6.60;;
9496;SDS011;4786;51.270;4.456;2023-04-03T02:11:03;7.03;;;6.33;;
9496;SDS011;4786;51.270;4.456;2023-04-03T02:13:29;6.93;;;6.33;;
9496;SDS011;4786;51.270;4.456;2023-04-03T02:15:54;7.13;;;6.43;;
9496;SDS011;4786;51.270;4.456;2023-04-03T02:18:20;7.53;;;6.70;;
9496;SDS011;4786;51.270;4.456;2023-04-03T02:20:46;9.67;;;6.53;;
9496;SDS011;4786;51.270;4.456;2023-04-03T02:23:12;7.00;;;6.30;;
9496;SDS011;4786;51.270;4.456;2023-04-03T02:25:38;7.47;;;6.43;;
9496;SDS011;4786;51.270;4.456;2023-04-03T02:28:04;7.50;;;6.67;;
9496;SDS011;4786;51.270;4.456;2023-04-03T02:30:30;6.83;;;6.23;;
9496;SDS011;4786;51.270;4.456;2023-04-03T02:32:56;7.77;;;6.67;;
9496;SDS011;4786;51.270;4.456;2023-04-03T02:35:22;7.87;;;6.77;;
9496;SDS011;4786;51.270;4.456;2023-04-03T02:37:49;10.47;;;7.10;;
9496;SDS011;4786;51.270;4.456;2023-04-03T02:40:14;7.63;;;6.83;;
9496;SDS011;4786;51.270;4.456;2023-04-03T02:42:40;7.70;;;6.77;;
9496;SDS011;4786;51.270;4.456;2023-04-03T02:45:06;8.30;;;7.03;;
9496;SDS011;4786;51.270;4.456;2023-04-03T02:47:32;7.93;;;7.13;;
9496;SDS011;4786;51.270;4.456;2023-04-03T02:49:58;8.10;;;6.60;;
9496;SDS011;4786;51.270;4.456;2023-04-03T02:52:24;7.10;;;6.40;;
9496;SDS011;4786;51.270;4.456;2023-04-03T02:54:50;7.53;;;6.63;;
9496;SDS011;4786;51.270;4.456;2023-04-03T02:57:16;8.13;;;7.00;;
9496;SDS011;4786;51.270;4.456;2023-04-03T02:59:42;7.40;;;6.70;;
9496;SDS011;4786;51.270;4.456;2023-04-03T03:02:09;7.17;;;6.37;;
9496;SDS011;4786;51.270;4.456;2023-04-03T03:04:35;6.80;;;6.20;;
9496;SDS011;4786;51.270;4.456;2023-04-03T03:07:01;7.43;;;6.63;;
9496;SDS011;4786;51.270;4.456;2023-04-03T03:09:28;7.87;;;7.07;;
9496;SDS011;4786;51.270;4.456;2023-04-03T03:11:55;8.33;;;7.37;;
9496;SDS011;4786;51.270;4.456;2023-04-03T03:14:22;8.20;;;7.40;;
9496;SDS011;4786;51.270;4.456;2023-04-03T03:16:48;7.93;;;7.00;;
9496;SDS011;4786;51.270;4.456;2023-04-03T03:19:15;9.53;;;6.57;;
9496;SDS011;4786;51.270;4.456;2023-04-03T03:21:40;8.20;;;6.70;;
9496;SDS011;4786;51.270;4.456;2023-04-03T03:24:06;10.23;;;7.03;;
9496;SDS011;4786;51.270;4.456;2023-04-03T03:26:32;8.70;;;6.87;;
9496;SDS011;4786;51.270;4.456;2023-04-03T03:28:58;7.37;;;6.67;;
9496;SDS011;4786;51.270;4.456;2023-04-03T03:31:24;9.13;;;7.13;;
9496;SDS011;4786;51.270;4.456;2023-04-03T03:33:50;8.50;;;7.60;;
9496;SDS011;4786;51.270;4.456;2023-04-03T03:36:16;8.20;;;7.27;;
9496;SDS011;4786;51.270;4.456;2023-04-03T03:38:42;9.20;;;6.83;;
9496;SDS011;4786;51.270;4.456;2023-04-03T03:41:08;7.93;;;6.93;;
9496;SDS011;4786;51.270;4.456;2023-04-03T03:43:34;8.30;;;7.50;;
9496;SDS011;4786;51.270;4.456;2023-04-03T03:45:59;7.27;;;6.57;;
9496;SDS011;4786;51.270;4.456;2023-04-03T03:48:25;8.33;;;7.43;;
9496;SDS011;4786;51.270;4.456;2023-04-03T03:50:52;8.80;;;7.90;;
9496;SDS011;4786;51.270;4.456;2023-04-03T03:53:18;13.57;;;7.50;;
9496;SDS011;4786;51.270;4.456;2023-04-03T03:55:44;8.60;;;7.70;;
9496;SDS011;4786;51.270;4.456;2023-04-03T03:58:10;8.47;;;7.67;;
9496;SDS011;4786;51.270;4.456;2023-04-03T04:00:36;9.47;;;7.47;;
9496;SDS011;4786;51.270;4.456;2023-04-03T04:03:02;9.47;;;7.70;;
9496;SDS011;4786;51.270;4.456;2023-04-03T04:05:28;7.97;;;7.27;;
9496;SDS011;4786;51.270;4.456;2023-04-03T04:07:55;8.80;;;7.60;;
9496;SDS011;4786;51.270;4.456;2023-04-03T04:10:21;9.07;;;7.37;;
9496;SDS011;4786;51.270;4.456;2023-04-03T04:12:47;8.80;;;7.73;;
9496;SDS011;4786;51.270;4.456;2023-04-03T04:15:14;8.20;;;6.93;;
9496;SDS011;4786;51.270;4.456;2023-04-03T04:17:40;9.37;;;7.60;;
9496;SDS011;4786;51.270;4.456;2023-04-03T04:20:06;10.23;;;7.73;;
9496;SDS011;4786;51.270;4.456;2023-04-03T04:22:32;8.57;;;7.63;;
9496;SDS011;4786;51.270;4.456;2023-04-03T04:24:57;8.43;;;7.63;;
9496;SDS011;4786;51.270;4.456;2023-04-03T04:27:23;8.93;;;7.83;;
9496;SDS011;4786;51.270;4.456;2023-04-03T04:29:49;8.13;;;7.37;;
9496;SDS011;4786;51.270;4.456;2023-04-03T04:32:16;8.53;;;7.50;;
9496;SDS011;4786;51.270;4.456;2023-04-03T04:34:41;8.77;;;7.50;;
9496;SDS011;4786;51.270;4.456;2023-04-03T04:37:07;11.53;;;7.60;;
9496;SDS011;4786;51.270;4.456;2023-04-03T04:39:33;10.23;;;7.00;;
9496;SDS011;4786;51.270;4.456;2023-04-03T04:41:59;9.20;;;7.37;;
9496;SDS011;4786;51.270;4.456;2023-04-03T04:44:25;7.93;;;7.23;;
9496;SDS011;4786;51.270;4.456;2023-04-03T04:46:51;10.43;;;7.57;;
9496;SDS011;4786;51.270;4.456;2023-04-03T04:49:17;8.27;;;7.27;;
9496;SDS011;4786;51.270;4.456;2023-04-03T04:51:43;9.33;;;7.27;;
9496;SDS011;4786;51.270;4.456;2023-04-03T04:54:09;11.50;;;7.57;;
9496;SDS011;4786;51.270;4.456;2023-04-03T04:56:35;10.47;;;8.03;;
9496;SDS011;4786;51.270;4.456;2023-04-03T04:59:01;9.07;;;7.77;;
9496;SDS011;4786;51.270;4.456;2023-04-03T05:01:26;8.43;;;7.63;;
9496;SDS011;4786;51.270;4.456;2023-04-03T05:03:52;9.33;;;7.63;;
9496;SDS011;4786;51.270;4.456;2023-04-03T05:06:18;8.70;;;7.50;;
9496;SDS011;4786;51.270;4.456;2023-04-03T05:08:44;8.70;;;7.53;;
9496;SDS011;4786;51.270;4.456;2023-04-03T05:11:10;9.60;;;8.07;;
9496;SDS011;4786;51.270;4.456;2023-04-03T05:13:36;9.20;;;7.80;;
9496;SDS011;4786;51.270;4.456;2023-04-03T05:16:02;10.03;;;7.37;;
9496;SDS011;4786;51.270;4.456;2023-04-03T05:18:29;13.73;;;7.70;;
9496;SDS011;4786;51.270;4.456;2023-04-03T05:20:54;8.90;;;7.97;;
9496;SDS011;4786;51.270;4.456;2023-04-03T05:23:21;10.67;;;7.77;;
9496;SDS011;4786;51.270;4.456;2023-04-03T05:25:47;8.80;;;7.73;;
9496;SDS011;4786;51.270;4.456;2023-04-03T05:28:13;10.03;;;7.43;;
9496;SDS011;4786;51.270;4.456;2023-04-03T05:30:40;8.67;;;7.20;;
9496;SDS011;4786;51.270;4.456;2023-04-03T05:33:06;8.90;;;7.10;;
9496;SDS011;4786;51.270;4.456;2023-04-03T05:35:32;8.50;;;7.60;;
9496;SDS011;4786;51.270;4.456;2023-04-03T05:38:04;14.30;;;7.70;;
9496;SDS011;4786;51.270;4.456;2023-04-03T05:40:30;8.60;;;7.70;;
9496;SDS011;4786;51.270;4.456;2023-04-03T05:42:55;9.87;;;7.20;;
9496;SDS011;4786;51.270;4.456;2023-04-03T05:45:21;8.73;;;7.10;;
9496;SDS011;4786;51.270;4.456;2023-04-03T05:47:47;9.00;;;6.97;;
9496;SDS011;4786;51.270;4.456;2023-04-03T05:50:13;7.53;;;6.73;;
9496;SDS011;4786;51.270;4.456;2023-04-03T05:52:40;6.83;;;6.13;;
9496;SDS011;4786;51.270;4.456;2023-04-03T05:55:09;6.80;;;6.10;;
9496;SDS011;4786;51.270;4.456;2023-04-03T05:57:35;8.83;;;6.67;;
9496;SDS011;4786;51.270;4.456;2023-04-03T06:00:00;8.73;;;6.47;;
9496;SDS011;4786;51.270;4.456;2023-04-03T06:02:27;7.47;;;6.10;;
9496;SDS011;4786;51.270;4.456;2023-04-03T06:04:53;7.90;;;5.63;;
9496;SDS011;4786;51.270;4.456;2023-04-03T06:07:21;6.50;;;5.80;;
9496;SDS011;4786;51.270;4.456;2023-04-03T06:09:49;7.63;;;6.70;;
9496;SDS011;4786;51.270;4.456;2023-04-03T06:12:16;6.33;;;5.33;;
9496;SDS011;4786;51.270;4.456;2023-04-03T06:14:42;8.07;;;6.37;;
9496;SDS011;4786;51.270;4.456;2023-04-03T06:17:09;7.30;;;5.97;;
9496;SDS011;4786;51.270;4.456;2023-04-03T06:19:35;9.53;;;6.70;;
9496;SDS011;4786;51.270;4.456;2023-04-03T06:22:02;8.17;;;6.23;;
9496;SDS011;4786;51.270;4.456;2023-04-03T06:24:28;6.27;;;5.60;;
9496;SDS011;4786;51.270;4.456;2023-04-03T06:26:55;7.77;;;6.60;;
9496;SDS011;4786;51.270;4.456;2023-04-03T06:29:21;6.10;;;5.43;;
9496;SDS011;4786;51.270;4.456;2023-04-03T06:31:48;8.60;;;6.60;;
9496;SDS011;4786;51.270;4.456;2023-04-03T06:34:15;6.43;;;5.73;;
9496;SDS011;4786;51.270;4.456;2023-04-03T06:36:41;8.93;;;6.00;;
9496;SDS011;4786;51.270;4.456;2023-04-03T06:39:08;16.10;;;6.43;;
9496;SDS011;4786;51.270;4.456;2023-04-03T06:41:48;9.53;;;6.37;;
9496;SDS011;4786;51.270;4.456;2023-04-03T06:44:16;9.70;;;6.00;;
9496;SDS011;4786;51.270;4.456;2023-04-03T06:46:43;9.43;;;6.00;;
9496;SDS011;4786;51.270;4.456;2023-04-03T06:49:10;8.37;;;5.83;;
9496;SDS011;4786;51.270;4.456;2023-04-03T06:51:36;10.17;;;5.80;;
9496;SDS011;4786;51.270;4.456;2023-04-03T06:54:03;6.37;;;5.30;;
9496;SDS011;4786;51.270;4.456;2023-04-03T06:56:30;7.10;;;5.37;;
9496;SDS011;4786;51.270;4.456;2023-04-03T06:58:57;7.83;;;5.50;;
9496;SDS011;4786;51.270;4.456;2023-04-03T07:01:24;8.07;;;4.93;;
9496;SDS011;4786;51.270;4.456;2023-04-03T07:03:52;7.10;;;4.80;;
9496;SDS011;4786;51.270;4.456;2023-04-03T07:06:20;5.73;;;4.83;;
9496;SDS011;4786;51.270;4.456;2023-04-03T07:08:47;10.07;;;5.60;;
9496;SDS011;4786;51.270;4.456;2023-04-03T07:11:16;6.23;;;4.80;;
9496;SDS011;4786;51.270;4.456;2023-04-03T07:13:42;9.73;;;4.83;;
9496;SDS011;4786;51.270;4.456;2023-04-03T07:16:08;6.57;;;4.87;;
9496;SDS011;4786;51.270;4.456;2023-04-03T07:18:35;5.10;;;4.60;;
9496;SDS011;4786;51.270;4.456;2023-04-03T07:21:02;6.63;;;4.50;;
9496;SDS011;4786;51.270;4.456;2023-04-03T07:23:28;5.73;;;4.73;;
9496;SDS011;4786;51.270;4.456;2023-04-03T07:25:55;7.50;;;4.70;;
9496;SDS011;4786;51.270;4.456;2023-04-03T07:28:22;7.20;;;4.53;;
9496;SDS011;4786;51.270;4.456;2023-04-03T07:30:50;5.37;;;3.80;;
9496;SDS011;4786;51.270;4.456;2023-04-03T07:33:18;8.53;;;4.63;;
9496;SDS011;4786;51.270;4.456;2023-04-03T07:35:45;6.40;;;4.27;;
9496;SDS011;4786;51.270;4.456;2023-04-03T07:38:11;6.67;;;3.80;;
9496;SDS011;4786;51.270;4.456;2023-04-03T07:40:37;4.60;;;3.60;;
9496;SDS011;4786;51.270;4.456;2023-04-03T07:43:04;6.87;;;3.60;;
9496;SDS011;4786;51.270;4.456;2023-04-03T07:45:31;6.23;;;3.83;;
9496;SDS011;4786;51.270;4.456;2023-04-03T07:48:00;8.03;;;3.63;;
9496;SDS011;4786;51.270;4.456;2023-04-03T07:50:26;6.83;;;3.43;;
9496;SDS011;4786;51.270;4.456;2023-04-03T07:52:52;5.07;;;3.17;;
9496;SDS011;4786;51.270;4.456;2023-04-03T07:55:21;4.33;;;3.20;;
9496;SDS011;4786;51.270;4.456;2023-04-03T07:57:46;5.73;;;3.53;;
9496;SDS011;4786;51.270;4.456;2023-04-03T08:00:12;5.33;;;3.07;;
9496;SDS011;4786;51.270;4.456;2023-04-03T08:02:38;4.17;;;3.23;;
9496;SDS011;4786;51.270;4.456;2023-04-03T08:05:04;6.47;;;3.10;;
9496;SDS011;4786;51.270;4.456;2023-04-03T08:07:31;7.33;;;3.47;;
9496;SDS011;4786;51.270;4.456;2023-04-03T08:09:56;4.47;;;3.00;;
9496;SDS011;4786;51.270;4.456;2023-04-03T08:12:22;5.17;;;3.20;;
9496;SDS011;4786;51.270;4.456;2023-04-03T08:14:49;4.47;;;2.80;;
9496;SDS011;4786;51.270;4.456;2023-04-03T08:17:15;5.73;;;2.77;;
9496;SDS011;4786;51.270;4.456;2023-04-03T08:19:40;5.87;;;2.60;;
9496;SDS011;4786;51.270;4.456;2023-04-03T08:22:07;7.63;;;2.97;;
9496;SDS011;4786;51.270;4.456;2023-04-03T08:24:33;4.50;;;2.97;;
9496;SDS011;4786;51.270;4.456;2023-04-03T08:26:58;5.47;;;2.97;;
9496;SDS011;4786;51.270;4.456;2023-04-03T08:29:25;6.20;;;3.17;;
9496;SDS011;4786;51.270;4.456;2023-04-03T08:31:51;3.80;;;2.77;;
9496;SDS011;4786;51.270;4.456;2023-04-03T08:36:44;4.40;;;2.93;;
